sensor_id;sensor_type;location;lat;lon;timestamp;pressure;altitude;pressure_sealevel;temperature;humidity
61740;BME280;47645;45.288;12.038;2022-09-01T00:02:33;1011.9552923984526;;;22.6087890625;76.16028011212602
61740;BME280;47645;45.288;12.038;2022-09-01T00:12:35;1011.9161117986213;;;22.5986328125;73.26374529507497
61740;BME280;47645;45.288;12.038;2022-09-01T00:22:35;1011.900705661465;;;22.532421875;75.71499870425693
61740;BME280;47645;45.288;12.038;2022-09-01T00:32:37;1011.9546175760535;;;22.5578125;75.2427079660436
61740;BME280;47645;45.288;12.038;2022-09-01T00:42:40;1011.9209347091812;;;22.5171875;74.64035180194435
61740;BME280;47645;45.288;12.038;2022-09-01T00:52:45;1011.8886974389164;;;23.0216796875;69.168406435191
61740;BME280;47645;45.288;12.038;2022-09-01T01:02:41;1011.8876306402457;;;22.9248046875;72.84745969290356
61740;BME280;47645;45.288;12.038;2022-09-01T01:12:43;1011.9244330431138;;;22.7107421875;73.8835016637697
61740;BME280;47645;45.288;12.038;2022-09-01T01:23:20;1011.7967459822;;;22.4966796875;74.03228668196094
61740;BME280;47645;45.288;12.038;2022-09-01T01:32:45;1011.732914002698;;;22.23671875;73.5510230600959
61740;BME280;47645;45.288;12.038;2022-09-01T01:42:48;1011.7861020419982;;;22.2572265625;72.99300300340265
61740;BME280;47645;45.288;12.038;2022-09-01T01:52:48;1011.8241685378343;;;22.09921875;74.05966316213045
61740;BME280;47645;45.288;12.038;2022-09-01T02:02:52;1011.8295847418702;;;22.0533203125;73.28051778528769
61740;BME280;47645;45.288;12.038;2022-09-01T02:12:50;1011.8603618227708;;;21.9564453125;73.2162938612557
61740;BME280;47645;45.288;12.038;2022-09-01T02:22:51;1011.82122161816;;;21.9564453125;72.86326067924035
61740;BME280;47645;45.288;12.038;2022-09-01T02:32:52;1011.779593841616;;;22.144921875;71.85356471526622
61740;BME280;47645;45.288;12.038;2022-09-01T02:42:55;1011.7812786630689;;;22.1705078125;71.65050102358823
61740;BME280;47645;45.288;12.038;2022-09-01T02:52:54;1011.8653832805635;;;22.0685546875;71.42598231895508
61740;BME280;47645;45.288;12.038;2022-09-01T03:02:58;1011.7127083437019;;;22.1552734375;70.14069025192819
61740;BME280;47645;45.288;12.038;2022-09-01T03:12:59;1011.8271439800692;;;22.241796875;69.03329246701755
61740;BME280;47645;45.288;12.038;2022-09-01T03:22:59;1011.8272471297466;;;22.241796875;70.30147669901645
61740;BME280;47645;45.288;12.038;2022-09-01T03:33:01;1011.8169651227618;;;22.134765625;70.40246774736293
61740;BME280;47645;45.288;12.038;2022-09-01T03:43:02;1011.8046067852291;;;22.1296875;69.63653053647069
61740;BME280;47645;45.288;12.038;2022-09-01T03:53:03;1011.761064130799;;;21.833984375;70.19906944235262
61740;BME280;47645;45.288;12.038;2022-09-01T04:03:05;1011.8211602749309;;;21.589453125;71.2562237814504
61740;BME280;47645;45.288;12.038;2022-09-01T04:13:05;1011.7243914756493;;;21.405859375;72.49762545242646
61740;BME280;47645;45.288;12.038;2022-09-01T04:23:10;1011.5892979576442;;;21.405859375;72.14384219889814
61740;BME280;47645;45.288;12.038;2022-09-01T04:33:07;1011.423833248903;;;21.512890625;71.1068715842602
61740;BME280;47645;45.288;12.038;2022-09-01T04:43:08;1011.5485726831118;;;21.29375;71.85080779481991
61740;BME280;47645;45.288;12.038;2022-09-01T04:53:11;1011.521172390669;;;21.1408203125;72.33554971282665
61740;BME280;47645;45.288;12.038;2022-09-01T05:03:11;1011.5095729137776;;;21.0287109375;73.59231541581089
61740;BME280;47645;45.288;12.038;2022-09-01T05:13:14;1011.5564495213181;;;21.416015625;72.49762545242646
61740;BME280;47645;45.288;12.038;2022-09-01T05:23:13;1011.5138804624347;;;21.105078125;73.5862998164458
61740;BME280;47645;45.288;12.038;2022-09-01T05:33:16;1011.6390891742255;;;21.0541015625;72.58518453541762
61740;BME280;47645;45.288;12.038;2022-09-01T05:43:16;1011.6710371689726;;;21.375390625;71.25229707478486
61740;BME280;47645;45.288;12.038;2022-09-01T05:53:16;1011.6894923898332;;;21.6455078125;70.71810295619936
61740;BME280;47645;45.288;12.038;2022-09-01T06:03:18;1011.7963336672966;;;21.8798828125;69.99157076950708
61740;BME280;47645;45.288;12.038;2022-09-01T06:13:21;1012.0110795554043;;;22.0583984375;70.79709129135031
61740;BME280;47645;45.288;12.038;2022-09-01T06:23:20;1012.0210847331664;;;22.8025390625;68.81690231109064
61740;BME280;47645;45.288;12.038;2022-09-01T06:33:23;1012.0405583432783;;;23.1900390625;67.5401838190718
61740;BME280;47645;45.288;12.038;2022-09-01T06:43:23;1012.0719848361147;;;23.2765625;67.08773829840273
61740;BME280;47645;45.288;12.038;2022-09-01T06:53:24;1012.0941757027728;;;23.3939453125;66.37721093540893
61740;BME280;47645;45.288;12.038;2022-09-01T07:03:25;1012.2920653827105;;;23.4958984375;66.9169350872227
61740;BME280;47645;45.288;12.038;2022-09-01T07:13:26;1012.3281120720366;;;23.5671875;66.2561607426308
61740;BME280;47645;45.288;12.038;2022-09-01T07:23:29;1012.42531824431;;;23.776171875;65.69345467439943
61740;BME280;47645;45.288;12.038;2022-09-01T07:33:30;1012.5168109639646;;;23.8119140625;64.351175451623
61740;BME280;47645;45.288;12.038;2022-09-01T07:43:32;1012.6459370883243;;;23.8220703125;64.05243743311424
61740;BME280;47645;45.288;12.038;2022-09-01T07:53:34;1012.7366112679124;;;23.959765625;63.646390394817736
61740;BME280;47645;45.288;12.038;2022-09-01T08:03:33;1012.708358174981;;;24.00546875;62.54488424235271
61740;BME280;47645;45.288;12.038;2022-09-01T08:13:36;1012.8509304008074;;;24.10234375;62.6646699751137
61740;BME280;47645;45.288;12.038;2022-09-01T08:23:37;1012.8385115816506;;;23.9240234375;63.29942839093221
61740;BME280;47645;45.288;12.038;2022-09-01T08:33:37;1013.0104348571404;;;24.1431640625;60.17565510699563
61740;BME280;47645;45.288;12.038;2022-09-01T08:43:51;1013.1577828859173;;;24.69375;58.8388615854084
61740;BME280;47645;45.288;12.038;2022-09-01T08:53:43;1013.1404027599216;;;25.61640625;56.43120620426461
61740;BME280;47645;45.288;12.038;2022-09-01T09:03:45;1013.1116043096931;;;25.341015625;56.664479770256996
61740;BME280;47645;45.288;12.038;2022-09-01T09:13:52;1013.0857902381488;;;25.3919921875;55.857234885574314
61740;BME280;47645;45.288;12.038;2022-09-01T09:23:46;1013.2217109753983;;;25.330859375;55.60124115988479
61740;BME280;47645;45.288;12.038;2022-09-01T09:33:44;1013.1182190156957;;;25.1931640625;55.00700353328694
61740;BME280;47645;45.288;12.038;2022-09-01T09:43:49;1013.1093203495842;;;25.1015625;55.154626395099584
61740;BME280;47645;45.288;12.038;2022-09-01T09:53:47;1013.1616501177516;;;25.611328125;53.97928008411898
61740;BME280;47645;45.288;12.038;2022-09-01T10:03:51;1013.151042586057;;;26.865234375;47.85988238689947
61740;BME280;47645;45.288;12.038;2022-09-01T10:13:51;1013.1657294254943;;;28.2619140625;46.469305639642684
61740;BME280;47645;45.288;12.038;2022-09-01T10:23:51;1013.0062987665409;;;27.7166015625;46.742596483986055
61740;BME280;47645;45.288;12.038;2022-09-01T10:33:53;1013.2059390776456;;;26.972265625;47.72196225961218
61740;BME280;47645;45.288;12.038;2022-09-01T10:44:07;1013.0645216306253;;;27.26796875;47.290146313356885
61740;BME280;47645;45.288;12.038;2022-09-01T10:53:57;1013.2202768271172;;;28.78203125;44.71132654336527
61740;BME280;47645;45.288;12.038;2022-09-01T11:03:58;1013.1503498383177;;;28.3486328125;43.13749338675591
61740;BME280;47645;45.288;12.038;2022-09-01T11:13:59;1013.1219804477431;;;28.578125;44.30093614845512
61740;BME280;47645;45.288;12.038;2022-09-01T11:34:10;1013.1202935826173;;;31.2798828125;39.20114987803311
61740;BME280;47645;45.288;12.038;2022-09-01T11:44:12;1013.0765362149599;;;31.8099609375;39.804676811405514
61740;BME280;47645;45.288;12.038;2022-09-01T11:54:05;1013.1176361664619;;;31.641796875;36.65401176599948
61740;BME280;47645;45.288;12.038;2022-09-01T12:04:20;1013.1699037222447;;;30.3876953125;41.689624450030855
61740;BME280;47645;45.288;12.038;2022-09-01T12:14:10;1013.1466127896098;;;30.70390625;39.89200359345779
61740;BME280;47645;45.288;12.038;2022-09-01T12:24:16;1013.1376719589105;;;30.53046875;38.25364630763441
61740;BME280;47645;45.288;12.038;2022-09-01T12:34:25;1013.0737671003699;;;29.4599609375;40.787479337882424
61740;BME280;47645;45.288;12.038;2022-09-01T12:44:32;1013.193110403649;;;28.9298828125;41.70687094494625
61740;BME280;47645;45.288;12.038;2022-09-01T12:54:24;1013.2067213281798;;;28.9501953125;41.496277239108025
61740;BME280;47645;45.288;12.038;2022-09-01T13:04:27;1013.3404371513426;;;28.3078125;41.542879847637366
61740;BME280;47645;45.288;12.038;2022-09-01T13:14:18;1013.2693754735308;;;28.5626953125;42.337806301467346
61740;BME280;47645;45.288;12.038;2022-09-01T13:24:19;1013.3000443626017;;;29.419140625;41.62510206242393
61740;BME280;47645;45.288;12.038;2022-09-01T13:34:22;1013.1506214378209;;;28.710546875;41.87045518152106
61740;BME280;47645;45.288;12.038;2022-09-01T13:44:22;1013.1819518051116;;;28.27734375;42.687599713361806
61740;BME280;47645;45.288;12.038;2022-09-01T13:54:24;1013.0910870399559;;;27.7318359375;44.0096403539272
61740;BME280;47645;45.288;12.038;2022-09-01T14:04:25;1013.0706779603223;;;30.448828125;41.372658368655756
61740;BME280;47645;45.288;12.038;2022-09-01T14:14:27;1013.1095469296445;;;29.725;40.277018328850964
61740;BME280;47645;45.288;12.038;2022-09-01T14:24:30;1013.1041439297016;;;29.730078125;42.32829347439586
61740;BME280;47645;45.288;12.038;2022-09-01T14:34:30;1013.0665748343702;;;30.41328125;40.19269059731408
61740;BME280;47645;45.288;12.038;2022-09-01T14:54:35;1013.0494261502976;;;29.592578125;41.918032558634316
61740;BME280;47645;45.288;12.038;2022-09-01T15:04:35;1013.1181426889194;;;30.2755859375;40.06405496498124
61740;BME280;47645;45.288;12.038;2022-09-01T15:14:37;1013.1413916185826;;;29.4802734375;42.51523281491091
61740;BME280;47645;45.288;12.038;2022-09-01T15:24:38;1013.1574750447359;;;29.725;41.53722763990616
61740;BME280;47645;45.288;12.038;2022-09-01T15:34:40;1013.1135106874921;;;29.52109375;44.53498436628794
61740;BME280;47645;45.288;12.038;2022-09-01T15:44:43;1013.1314961802536;;;30.0818359375;43.00304859401999
61740;BME280;47645;45.288;12.038;2022-09-01T15:54:43;1013.2610312491183;;;28.312890625;45.431417923063506
61740;BME280;47645;45.288;12.038;2022-09-01T16:04:44;1013.3271949127579;;;28.700390625;45.680134539327746
61740;BME280;47645;45.288;12.038;2022-09-01T16:14:46;1013.3945334608243;;;27.98671875;47.264668758950435
61740;BME280;47645;45.288;12.038;2022-09-01T16:24:50;1013.6400367546584;;;27.1966796875;49.52818688355149
61740;BME280;47645;45.288;12.038;2022-09-01T16:34:51;1013.6911633114519;;;26.564453125;50.65395071286214
61740;BME280;47645;45.288;12.038;2022-09-01T16:44:59;1013.5933013556238;;;27.252734375;49.67440081005277
61740;BME280;47645;45.288;12.038;2022-09-01T16:55:05;1013.5583725200123;;;27.0130859375;50.477400722068644
61740;BME280;47645;45.288;12.038;2022-09-01T17:04:59;1013.5369602992637;;;26.146484375;52.662045712984074
61740;BME280;47645;45.288;12.038;2022-09-01T17:15:01;1013.6053325342061;;;25.9017578125;53.47796620083566
61740;BME280;47645;45.288;12.038;2022-09-01T17:25:00;1013.6460342737382;;;25.1576171875;56.87147303835238
61740;BME280;47645;45.288;12.038;2022-09-01T17:35:07;1013.8014295499702;;;24.9587890625;56.28110294792631
61740;BME280;47645;45.288;12.038;2022-09-01T17:45:08;1013.9170135808484;;;24.5458984375;56.37145730133104
61740;BME280;47645;45.288;12.038;2022-09-01T17:55:06;1014.2108088591226;;;24.5662109375;56.273754227922666
61740;BME280;47645;45.288;12.038;2022-09-01T18:05:08;1014.370528619724;;;24.280859375;56.84000931664184
61740;BME280;47645;45.288;12.038;2022-09-01T18:15:07;1014.4332271757298;;;23.9240234375;57.63398528766248
61740;BME280;47645;45.288;12.038;2022-09-01T18:20:09;1014.4941360313616;;;24.0259765625;57.24009304096837
61740;BME280;47645;45.288;12.038;2022-09-01T18:30:07;1014.5878380611231;;;23.862890625;57.74064090873415
61740;BME280;47645;45.288;12.038;2022-09-01T18:40:16;1014.6070913415374;;;23.8068359375;57.818666583565395
61740;BME280;47645;45.288;12.038;2022-09-01T18:50:14;1014.7648704926195;;;23.658984375;57.92246225713419
61740;BME280;47645;45.288;12.038;2022-09-01T19:00:14;1014.7852009472183;;;23.36328125;59.652930923755484
61740;BME280;47645;45.288;12.038;2022-09-01T19:10:16;1014.9044235718807;;;23.7455078125;58.98499177450546
61740;BME280;47645;45.288;12.038;2022-09-01T19:20:15;1014.9798760492132;;;23.5162109375;59.728051459865625
61740;BME280;47645;45.288;12.038;2022-09-01T19:30:13;1015.0026520632496;;;23.4091796875;60.22387344847957
61740;BME280;47645;45.288;12.038;2022-09-01T19:40:24;1015.0811175718343;;;23.4091796875;60.57969147178321
61740;BME280;47645;45.288;12.038;2022-09-01T19:50:21;1015.1545931124498;;;23.3123046875;61.08680026816326
61740;BME280;47645;45.288;12.038;2022-09-01T20:00:21;1015.28102382854;;;23.36328125;60.75021057752806
61740;BME280;47645;45.288;12.038;2022-09-01T20:10:30;1015.3438346759699;;;23.1796875;60.39704853591226
61740;BME280;47645;45.288;12.038;2022-09-01T20:20:22;1015.3678923870912;;;23.14921875;59.689005769600456
61740;BME280;47645;45.288;12.038;2022-09-01T20:30:23;1015.3964972856418;;;23.1236328125;59.573686959799524
61740;BME280;47645;45.288;12.038;2022-09-01T20:40:26;1015.3481015142665;;;22.83828125;60.061248125283505
61740;BME280;47645;45.288;12.038;2022-09-01T20:50:30;1015.4319995289393;;;22.532421875;60.7178123817884
61740;BME280;47645;45.288;12.038;2022-09-01T21:00:29;1015.4869557651843;;;22.52734375;60.25902928793646
61740;BME280;47645;45.288;12.038;2022-09-01T21:10:36;1015.5588996431751;;;22.2265625;60.24622828329221
61740;BME280;47645;45.288;12.038;2022-09-01T21:20:41;1015.5691962324439;;;22.0125;60.797278732575776
61740;BME280;47645;45.288;12.038;2022-09-01T21:30:32;1015.6355126469549;;;21.9462890625;59.92362606744159
61740;BME280;47645;45.288;12.038;2022-09-01T21:40:33;1015.5702692917943;;;22.211328125;58.76547573289685
61740;BME280;47645;45.288;12.038;2022-09-01T21:50:37;1015.5719082975742;;;22.09921875;57.30474709587037
61740;BME280;47645;45.288;12.038;2022-09-01T22:00:37;1015.5522949074782;;;22.109375;58.01596564126549
61740;BME280;47645;45.288;12.038;2022-09-01T22:10:35;1015.6835033639928;;;22.2572265625;57.03543597655669
61740;BME280;47645;45.288;12.038;2022-09-01T22:20:37;1015.7975053102273;;;22.211328125;55.25492050064477
61740;BME280;47645;45.288;12.038;2022-09-01T22:30:44;1015.6917883184065;;;22.562890625;56.74934330304926
61740;BME280;47645;45.288;12.038;2022-09-01T22:40:44;1015.5810414237903;;;22.2724609375;54.602359073646866
61740;BME280;47645;45.288;12.038;2022-09-01T22:50:41;1015.7298652205722;;;22.21640625;54.89972646405619
61740;BME280;47645;45.288;12.038;2022-09-01T23:00:44;1015.815719129433;;;22.0939453125;56.146159466469065
61740;BME280;47645;45.288;12.038;2022-09-01T23:10:42;1015.8969673333579;;;21.6708984375;59.43028510850382
61740;BME280;47645;45.288;12.038;2022-09-01T23:20:44;1015.9139900385265;;;21.3650390625;60.98458466713292
61740;BME280;47645;45.288;12.038;2022-09-01T23:30:47;1015.8244850403868;;;21.2376953125;61.607198452406365
61740;BME280;47645;45.288;12.038;2022-09-01T23:40:48;1015.816716675737;;;20.8044921875;63.338871390195884
61740;BME280;47645;45.288;12.038;2022-09-01T23:50:52;1015.7638262336673;;;20.8451171875;63.289642352597355
